createdAt,value
2019-02-28T00:01:52.670Z,21.70
2019-02-28T00:04:35.507Z,19.07
2019-02-28T00:07:18.689Z,22.30
2019-02-28T00:10:01.304Z,24.10
2019-02-28T00:12:45.214Z,21.80
2019-02-28T00:15:30.361Z,25.00
2019-02-28T00:18:15.191Z,20.63
2019-02-28T00:20:57.935Z,21.05
2019-02-28T00:23:40.656Z,16.77
2019-02-28T00:26:23.347Z,20.00
2019-02-28T00:29:09.423Z,24.60
2019-02-28T00:31:54.072Z,20.37
2019-02-28T00:34:39.935Z,20.37
2019-02-28T00:37:24.687Z,18.13
2019-02-28T00:40:08.467Z,16.87
2019-02-28T00:42:51.865Z,12.60
2019-02-28T00:45:37.132Z,16.60
2019-02-28T00:48:21.675Z,17.30
2019-02-28T00:51:08.977Z,25.87
2019-02-28T00:53:53.425Z,15.70
2019-02-28T00:56:36.093Z,14.97
2019-02-28T00:59:19.157Z,17.60
2019-02-28T01:02:03.161Z,17.43
2019-02-28T01:04:46.629Z,13.90
2019-02-28T01:07:32.188Z,17.97
2019-02-28T01:10:15.700Z,14.20
2019-02-28T01:12:59.660Z,11.00
2019-02-28T01:15:45.032Z,13.67
2019-02-28T01:18:27.335Z,14.17
2019-02-28T01:21:10.549Z,10.10
2019-02-28T01:23:54.041Z,16.43
2019-02-28T01:26:35.550Z,16.07
2019-02-28T01:29:18.355Z,10.10
2019-02-28T01:32:03.315Z,10.73
2019-02-28T01:34:45.859Z,10.70
2019-02-28T01:37:28.584Z,10.47
2019-02-28T01:40:11.956Z,8.17
2019-02-28T01:42:55.156Z,8.87
2019-02-28T01:45:38.063Z,8.67
2019-02-28T01:48:22.656Z,8.37
2019-02-28T01:51:05.731Z,9.67
2019-02-28T01:53:50.453Z,9.50
2019-02-28T01:56:36.712Z,8.73
2019-02-28T01:59:21.650Z,9.77
2019-02-28T02:02:06.727Z,6.90
2019-02-28T02:04:50.737Z,11.90
2019-02-28T02:07:35.887Z,12.63
2019-02-28T02:10:22.904Z,15.30
2019-02-28T02:13:06.321Z,10.00
2019-02-28T02:15:52.093Z,11.77
2019-02-28T02:18:34.871Z,8.53
2019-02-28T02:21:19.818Z,12.93
2019-02-28T02:24:05.080Z,11.67
2019-02-28T02:26:48.155Z,10.17
2019-02-28T02:29:32.460Z,13.60
2019-02-28T02:32:16.382Z,11.60
2019-02-28T02:35:06.281Z,8.93
2019-02-28T02:37:44.753Z,12.57
2019-02-28T02:40:27.488Z,13.43
2019-02-28T02:43:10.209Z,11.00
2019-02-28T02:45:55.395Z,11.40
2019-02-28T02:48:42.370Z,12.40
2019-02-28T02:51:23.164Z,11.33
2019-02-28T02:54:07.561Z,10.10
2019-02-28T02:56:50.589Z,12.03
2019-02-28T02:59:39.087Z,11.73
2019-02-28T03:02:18.650Z,16.30
2019-02-28T03:05:04.301Z,14.97
2019-02-28T03:07:49.690Z,11.20
2019-02-28T03:10:32.778Z,13.53
2019-02-28T03:13:15.389Z,14.40
2019-02-28T03:16:00.497Z,16.00
2019-02-28T03:18:44.004Z,12.98
2019-02-28T03:21:28.954Z,13.50
2019-02-28T03:24:15.145Z,13.47
2019-02-28T03:26:56.853Z,12.93
2019-02-28T03:29:43.366Z,12.90
2019-02-28T03:32:23.704Z,11.67
2019-02-28T03:35:08.973Z,13.75
2019-02-28T03:37:52.000Z,10.53
2019-02-28T03:40:39.799Z,9.53
2019-02-28T03:43:20.350Z,11.17
2019-02-28T03:46:06.490Z,8.80
2019-02-28T03:48:48.253Z,9.17
2019-02-28T03:51:31.000Z,7.60
2019-02-28T03:54:14.833Z,8.07
2019-02-28T03:56:59.784Z,11.37
2019-02-28T03:59:42.385Z,8.77
2019-02-28T04:02:25.128Z,11.10
2019-02-28T04:05:08.067Z,8.55
2019-02-28T04:07:54.838Z,9.33
2019-02-28T04:10:37.750Z,9.20
2019-02-28T04:13:21.140Z,11.50
2019-02-28T04:16:09.144Z,9.67
2019-02-28T04:18:49.206Z,11.13
2019-02-28T04:21:32.901Z,8.27
2019-02-28T04:24:15.550Z,11.13
2019-02-28T04:26:58.331Z,14.43
2019-02-28T04:29:41.828Z,14.47
2019-02-28T04:32:27.695Z,13.83
2019-02-28T04:35:08.771Z,12.47
2019-02-28T04:37:52.123Z,16.13
2019-02-28T04:40:35.613Z,17.67
2019-02-28T04:43:19.905Z,16.70
2019-02-28T04:46:04.351Z,17.77
2019-02-28T04:48:48.489Z,16.63
2019-02-28T04:54:16.912Z,14.00
2019-02-28T04:57:01.460Z,18.50
2019-02-28T04:59:44.832Z,19.63
2019-02-28T05:02:29.861Z,15.43
2019-02-28T05:05:14.750Z,12.77
2019-02-28T05:07:57.810Z,16.87
2019-02-28T05:10:40.940Z,17.53
2019-02-28T05:13:24.234Z,16.93
2019-02-28T05:16:09.345Z,17.07
2019-02-28T05:18:51.907Z,12.50
2019-02-28T05:21:35.429Z,15.77
2019-02-28T05:24:20.119Z,13.60
2019-02-28T05:27:03.543Z,16.67
2019-02-28T05:29:46.794Z,11.70
2019-02-28T05:32:32.118Z,13.90
2019-02-28T05:35:18.114Z,17.97
2019-02-28T05:38:00.660Z,16.67
2019-02-28T05:40:43.853Z,12.67
2019-02-28T05:43:29.172Z,14.33
2019-02-28T05:46:11.817Z,10.63
2019-02-28T05:48:55.368Z,12.10
2019-02-28T05:51:38.893Z,10.87
2019-02-28T05:54:22.464Z,11.27
2019-02-28T05:57:08.244Z,16.80
2019-02-28T05:59:50.669Z,12.47
2019-02-28T06:02:33.162Z,11.00
2019-02-28T06:05:16.646Z,10.50
2019-02-28T06:08:00.489Z,11.67
2019-02-28T06:10:44.674Z,14.07
2019-02-28T06:13:27.380Z,11.73
2019-02-28T06:16:12.350Z,12.43
2019-02-28T06:18:57.550Z,9.37
2019-02-28T06:21:41.107Z,14.23
2019-02-28T06:24:27.935Z,12.10
2019-02-28T06:27:10.549Z,8.43
2019-02-28T06:29:55.947Z,11.60
2019-02-28T06:32:39.373Z,11.25
2019-02-28T06:35:22.302Z,13.33
2019-02-28T06:38:06.735Z,10.60
2019-02-28T06:40:50.024Z,10.03
2019-02-28T06:46:41.620Z,10.30
2019-02-28T06:49:24.527Z,9.78
2019-02-28T06:52:07.537Z,8.67
2019-02-28T06:54:50.755Z,5.83
2019-02-28T06:57:34.104Z,7.60
2019-02-28T07:00:20.648Z,13.37
2019-02-28T07:03:04.374Z,11.27
2019-02-28T07:05:47.704Z,7.10
2019-02-28T07:08:30.582Z,11.10
2019-02-28T07:11:14.000Z,7.57
2019-02-28T07:13:45.498Z,7.20
2019-02-28T07:16:17.068Z,14.60
2019-02-28T07:18:52.847Z,8.67
2019-02-28T07:21:21.747Z,8.87
2019-02-28T07:23:53.355Z,8.98
2019-02-28T07:26:24.845Z,8.87
2019-02-28T07:28:56.310Z,8.30
2019-02-28T07:31:28.060Z,14.50
2019-02-28T07:33:59.469Z,8.97
2019-02-28T07:36:30.861Z,9.90
2019-02-28T07:39:04.478Z,8.68
2019-02-28T07:41:36.902Z,6.63
2019-02-28T07:44:08.381Z,7.13
2019-02-28T07:46:42.600Z,6.30
2019-02-28T07:49:13.009Z,7.57
2019-02-28T07:51:44.463Z,6.07
2019-02-28T07:54:16.653Z,10.03
2019-02-28T07:56:48.206Z,12.83
2019-02-28T07:59:19.617Z,8.67
2019-02-28T08:01:51.065Z,5.50
2019-02-28T08:04:22.691Z,6.47
2019-02-28T08:06:54.927Z,6.37
2019-02-28T08:09:31.060Z,10.27
2019-02-28T08:12:02.469Z,9.47
2019-02-28T08:14:34.033Z,7.75
2019-02-28T08:17:09.040Z,13.60
2019-02-28T08:19:39.113Z,12.00
2019-02-28T08:22:10.495Z,9.70
2019-02-28T08:24:41.945Z,9.07
2019-02-28T08:27:13.764Z,15.40
2019-02-28T08:29:46.022Z,8.33
2019-02-28T08:32:17.690Z,9.20
2019-02-28T08:34:49.299Z,8.23
2019-02-28T08:37:22.427Z,8.43
2019-02-28T08:39:54.053Z,8.83
2019-02-28T08:42:25.487Z,11.67
2019-02-28T08:44:58.983Z,11.47
2019-02-28T08:47:29.958Z,10.67
2019-02-28T08:50:01.426Z,12.43
2019-02-28T08:52:32.904Z,13.70
2019-02-28T08:55:06.711Z,10.70
2019-02-28T08:57:37.861Z,10.75
2019-02-28T09:00:12.566Z,10.80
2019-02-28T09:02:44.033Z,13.72
2019-02-28T09:05:16.044Z,14.58
2019-02-28T09:07:51.349Z,11.05
2019-02-28T09:10:20.955Z,10.03
2019-02-28T09:12:52.464Z,11.00
2019-02-28T09:15:23.930Z,7.95
2019-02-28T09:17:59.353Z,9.80
2019-02-28T09:20:28.874Z,8.55
2019-02-28T09:23:02.195Z,10.55
2019-02-28T09:25:33.598Z,12.13
2019-02-28T09:28:05.119Z,10.68
2019-02-28T09:30:38.632Z,10.72
2019-02-28T09:33:10.285Z,10.65
2019-02-28T09:35:45.294Z,10.63
2019-02-28T09:38:14.979Z,14.35
2019-02-28T09:40:46.394Z,11.97
2019-02-28T09:43:17.775Z,8.55
2019-02-28T09:45:49.159Z,8.80
2019-02-28T09:48:20.563Z,9.90
2019-02-28T09:50:57.912Z,13.10
2019-02-28T09:53:25.197Z,10.13
2019-02-28T09:55:56.704Z,12.05
2019-02-28T09:58:29.365Z,13.65
2019-02-28T10:01:01.332Z,9.60
2019-02-28T10:03:34.695Z,10.98
2019-02-28T10:06:06.397Z,11.90
2019-02-28T10:08:40.186Z,11.88
2019-02-28T10:11:11.844Z,9.73
2019-02-28T10:13:42.703Z,13.32
2019-02-28T10:16:16.782Z,13.62
2019-02-28T10:18:47.216Z,11.08
2019-02-28T10:21:18.708Z,10.80
2019-02-28T10:23:50.153Z,11.53
2019-02-28T10:26:23.173Z,15.68
2019-02-28T10:28:54.638Z,14.18
2019-02-28T10:31:36.313Z,13.53
2019-02-28T10:33:59.179Z,15.05
2019-02-28T10:36:30.668Z,16.35
2019-02-28T10:39:02.796Z,11.70
2019-02-28T10:41:35.874Z,10.10
2019-02-28T10:44:07.424Z,12.23
2019-02-28T10:46:38.915Z,11.10
2019-02-28T10:49:10.371Z,11.88
2019-02-28T10:51:44.629Z,12.70
2019-02-28T10:54:17.510Z,22.98
2019-02-28T10:56:48.925Z,13.83
2019-02-28T10:59:21.360Z,13.48
2019-02-28T11:01:54.156Z,13.48
2019-02-28T11:04:27.522Z,12.93
2019-02-28T11:07:02.382Z,14.95
2019-02-28T11:09:32.686Z,11.30
2019-02-28T11:12:04.255Z,12.53
2019-02-28T11:14:38.710Z,12.35
2019-02-28T11:17:13.677Z,12.05
2019-02-28T11:19:42.424Z,13.30
2019-02-28T11:22:15.052Z,11.57
2019-02-28T11:24:48.203Z,12.33
2019-02-28T11:27:22.882Z,15.25
2019-02-28T11:29:52.784Z,11.15
2019-02-28T11:32:26.409Z,16.95
2019-02-28T11:34:57.351Z,17.27
2019-02-28T11:37:29.018Z,15.10
2019-02-28T11:40:00.480Z,13.75
2019-02-28T11:42:31.959Z,13.65
2019-02-28T11:45:03.710Z,14.10
2019-02-28T11:47:36.888Z,15.45
2019-02-28T11:50:08.412Z,13.55
2019-02-28T11:52:40.076Z,20.25
2019-02-28T11:55:12.161Z,16.57
2019-02-28T11:57:43.765Z,28.07
2019-02-28T12:00:19.831Z,19.10
2019-02-28T12:02:53.544Z,15.23
2019-02-28T12:05:24.642Z,14.78
2019-02-28T12:07:56.203Z,13.58
2019-02-28T12:10:27.958Z,15.40
2019-02-28T12:13:00.364Z,16.60
2019-02-28T12:15:32.078Z,14.95
2019-02-28T12:18:04.876Z,17.05
2019-02-28T12:20:36.575Z,18.25
2019-02-28T12:23:08.456Z,13.60
2019-02-28T12:25:42.794Z,18.30
2019-02-28T12:28:13.033Z,14.50
2019-02-28T12:30:44.581Z,13.28
2019-02-28T12:33:19.003Z,14.15
2019-02-28T12:35:49.362Z,15.78
2019-02-28T12:38:20.935Z,13.40
2019-02-28T12:40:52.458Z,13.90
2019-02-28T12:43:24.093Z,15.13
2019-02-28T12:45:56.920Z,15.72
2019-02-28T12:48:28.822Z,15.18
2019-02-28T12:51:02.280Z,13.70
2019-02-28T12:53:33.509Z,16.75
2019-02-28T12:56:05.002Z,13.18
2019-02-28T12:58:38.995Z,17.07
2019-02-28T13:01:09.550Z,19.30
2019-02-28T13:03:41.152Z,12.75
2019-02-28T13:06:12.589Z,20.12
2019-02-28T13:08:44.089Z,18.85
2019-02-28T13:11:15.593Z,21.85
2019-02-28T13:13:47.088Z,18.07
2019-02-28T13:16:20.809Z,18.25
2019-02-28T13:18:51.616Z,17.00
2019-02-28T13:21:23.090Z,16.73
2019-02-28T13:23:54.616Z,15.88
2019-02-28T13:26:26.213Z,17.87
2019-02-28T13:28:58.612Z,16.75
2019-02-28T13:31:30.123Z,15.08
2019-02-28T13:34:01.869Z,17.90
2019-02-28T13:36:33.378Z,18.77
2019-02-28T13:39:06.514Z,17.48
2019-02-28T13:41:38.450Z,17.73
2019-02-28T13:44:10.115Z,17.48
2019-02-28T13:46:41.854Z,14.03
2019-02-28T13:49:15.531Z,22.02
2019-02-28T13:51:46.463Z,16.73
2019-02-28T13:54:18.095Z,17.80
2019-02-28T13:56:49.472Z,18.90
2019-02-28T13:59:20.929Z,16.12
2019-02-28T14:01:55.465Z,20.25
2019-02-28T14:04:27.117Z,23.98
2019-02-28T14:08:59.733Z,24.20
2019-02-28T14:11:45.069Z,16.80
2019-02-28T14:14:26.437Z,20.27
2019-02-28T14:17:09.073Z,15.83
2019-02-28T14:19:52.772Z,20.85
2019-02-28T14:22:35.908Z,18.95
2019-02-28T14:25:20.133Z,22.20
2019-02-28T14:28:01.757Z,15.48
2019-02-28T14:30:46.077Z,15.98
2019-02-28T14:33:30.121Z,17.12
2019-02-28T14:36:12.421Z,17.02
2019-02-28T14:38:54.356Z,16.07
2019-02-28T14:41:37.230Z,15.68
2019-02-28T14:44:21.384Z,18.27
2019-02-28T14:47:04.174Z,15.68
2019-02-28T14:49:46.075Z,15.32
2019-02-28T14:52:28.100Z,19.92
2019-02-28T14:55:10.453Z,16.12
2019-02-28T14:57:52.641Z,17.67
2019-02-28T15:00:35.565Z,23.83
2019-02-28T15:03:19.017Z,17.35
2019-02-28T15:06:02.991Z,15.98
2019-02-28T15:08:47.431Z,16.90
2019-02-28T15:11:28.784Z,14.80
2019-02-28T15:14:11.479Z,15.13
2019-02-28T15:16:53.490Z,16.20
2019-02-28T15:19:35.442Z,14.73
2019-02-28T15:22:21.055Z,17.55
2019-02-28T15:25:01.506Z,21.62
2019-02-28T15:27:43.654Z,19.33
2019-02-28T15:30:25.493Z,20.23
2019-02-28T15:33:07.490Z,17.70
2019-02-28T15:35:50.479Z,19.50
2019-02-28T15:38:34.102Z,20.08
2019-02-28T15:41:16.211Z,20.27
2019-02-28T15:43:58.175Z,15.32
2019-02-28T15:46:40.072Z,18.95
2019-02-28T15:49:22.197Z,15.33
2019-02-28T15:52:05.285Z,17.60
2019-02-28T15:57:30.206Z,21.13
2019-02-28T16:00:12.882Z,17.47
2019-02-28T16:02:54.917Z,19.05
2019-02-28T16:05:42.429Z,17.85
2019-02-28T16:08:20.781Z,19.03
2019-02-28T16:11:03.229Z,19.63
2019-02-28T16:13:46.137Z,23.93
2019-02-28T16:16:28.180Z,18.70
2019-02-28T16:19:10.020Z,22.13
2019-02-28T16:21:52.205Z,23.30
2019-02-28T16:24:36.646Z,22.33
2019-02-28T16:27:18.937Z,20.83
2019-02-28T16:30:00.932Z,21.40
2019-02-28T16:32:45.628Z,32.93
2019-02-28T16:35:29.688Z,31.17
2019-02-28T16:38:12.154Z,24.83
2019-02-28T16:40:53.688Z,24.43
2019-02-28T16:43:35.981Z,20.70
2019-02-28T16:46:17.637Z,27.50
2019-02-28T16:48:59.896Z,27.90
2019-02-28T16:51:41.932Z,22.77
2019-02-28T16:54:26.292Z,35.03
2019-02-28T16:57:09.435Z,45.77
2019-02-28T16:59:53.624Z,29.43
2019-02-28T17:02:37.609Z,32.37
2019-02-28T17:05:26.688Z,26.63
2019-02-28T17:08:06.823Z,26.33
2019-02-28T17:10:51.484Z,27.53
2019-02-28T17:13:39.803Z,23.80
2019-02-28T17:16:25.881Z,27.67
2019-02-28T17:19:08.746Z,25.63
2019-02-28T17:21:52.280Z,25.57
2019-02-28T17:24:35.261Z,33.30
2019-02-28T17:33:20.088Z,24.87
2019-02-28T17:36:08.186Z,26.97
2019-02-28T17:38:50.096Z,27.50
2019-02-28T17:41:37.209Z,22.80
2019-02-28T17:44:19.787Z,30.50
2019-02-28T17:47:02.173Z,23.23
2019-02-28T17:49:46.406Z,68.30
2019-02-28T17:52:30.579Z,56.80
2019-02-28T17:55:11.480Z,35.60
2019-02-28T17:57:53.941Z,24.73
2019-02-28T18:00:35.937Z,30.87
2019-02-28T18:03:18.032Z,24.60
2019-02-28T18:06:00.267Z,18.53
2019-02-28T18:08:42.131Z,22.83
2019-02-28T18:11:26.060Z,20.47
2019-02-28T18:14:08.092Z,15.67
2019-02-28T18:16:54.589Z,20.80
2019-02-28T18:19:36.980Z,19.00
2019-02-28T18:22:20.773Z,20.50
2019-02-28T18:25:02.590Z,17.80
2019-02-28T18:27:46.749Z,23.15
2019-02-28T18:30:30.097Z,23.43
2019-02-28T18:33:11.953Z,19.53
2019-02-28T18:35:54.683Z,20.37
2019-02-28T18:38:38.683Z,21.67
2019-02-28T18:41:22.767Z,25.03
2019-02-28T18:44:07.716Z,73.30
2019-02-28T18:46:52.612Z,115.03
2019-02-28T18:49:34.360Z,46.33
2019-02-28T18:52:15.999Z,31.83
2019-02-28T18:55:05.783Z,24.52
2019-02-28T18:57:41.714Z,21.53
2019-02-28T19:00:24.329Z,22.37
2019-02-28T19:03:08.372Z,19.27
2019-02-28T19:05:50.192Z,18.87
2019-02-28T19:08:31.969Z,23.20
2019-02-28T19:11:15.034Z,21.43
2019-02-28T19:13:58.651Z,16.93
2019-02-28T19:16:41.477Z,22.33
2019-02-28T19:19:23.065Z,18.27
2019-02-28T19:22:05.829Z,18.27
2019-02-28T19:24:47.962Z,19.80
2019-02-28T19:27:31.091Z,39.33
2019-02-28T19:30:15.918Z,26.80
2019-02-28T19:32:57.815Z,21.07
2019-02-28T19:35:39.609Z,22.83
2019-02-28T19:38:22.497Z,80.63
2019-02-28T19:41:04.427Z,47.07
2019-02-28T19:43:47.637Z,19.67
2019-02-28T19:46:29.619Z,23.57
2019-02-28T19:49:13.645Z,20.00
2019-02-28T19:51:55.426Z,19.67
2019-02-28T19:54:37.145Z,17.30
2019-02-28T19:57:19.313Z,18.65
2019-02-28T20:00:01.225Z,18.33
2019-02-28T20:02:44.311Z,18.47
2019-02-28T20:05:26.072Z,19.80
2019-02-28T20:08:08.302Z,19.13
2019-02-28T20:10:50.539Z,15.60
2019-02-28T20:13:32.461Z,20.33
2019-02-28T20:16:17.397Z,17.33
2019-02-28T20:19:02.413Z,23.43
2019-02-28T20:21:44.416Z,18.10
2019-02-28T20:24:28.363Z,15.03
2019-02-28T20:27:10.522Z,19.97
2019-02-28T20:29:55.296Z,35.70
2019-02-28T20:32:36.768Z,37.05
2019-02-28T20:35:26.112Z,19.57
2019-02-28T20:38:03.189Z,21.13
2019-02-28T20:40:45.416Z,18.67
2019-02-28T20:43:29.536Z,21.45
2019-02-28T20:46:11.857Z,18.07
2019-02-28T20:48:53.834Z,17.63
2019-02-28T20:51:35.886Z,15.13
2019-02-28T20:54:17.739Z,18.30
2019-02-28T20:57:00.441Z,16.73
2019-02-28T20:59:44.594Z,13.33
2019-02-28T21:02:30.606Z,21.57
2019-02-28T21:05:16.417Z,16.23
2019-02-28T21:07:58.268Z,17.10
2019-02-28T21:10:42.516Z,16.15
2019-02-28T21:13:28.634Z,17.70
2019-02-28T21:16:10.827Z,20.20
2019-02-28T21:18:52.738Z,16.97
2019-02-28T21:21:36.731Z,14.70
2019-02-28T21:24:18.583Z,18.55
2019-02-28T21:27:02.717Z,21.40
2019-02-28T21:29:44.764Z,29.97
2019-02-28T21:32:26.418Z,32.33
2019-02-28T21:35:09.076Z,21.07
2019-02-28T21:37:53.694Z,17.00
2019-02-28T21:40:36.611Z,18.20
2019-02-28T21:43:22.342Z,17.50
2019-02-28T21:46:04.176Z,14.93
2019-02-28T21:48:48.329Z,15.40
2019-02-28T21:51:31.832Z,13.97
2019-02-28T21:54:15.793Z,14.30
2019-02-28T21:56:58.122Z,20.05
2019-02-28T21:59:40.142Z,15.80
2019-02-28T22:02:23.938Z,18.20
2019-02-28T22:05:06.036Z,16.00
2019-02-28T22:07:48.561Z,18.60
2019-02-28T22:10:31.282Z,15.50
2019-02-28T22:13:13.330Z,14.23
2019-02-28T22:15:55.038Z,18.00
2019-02-28T22:18:37.394Z,14.73
2019-02-28T22:21:19.489Z,13.73
2019-02-28T22:24:01.568Z,15.70
2019-02-28T22:26:43.640Z,20.37
2019-02-28T22:29:25.822Z,17.70
2019-02-28T22:32:24.557Z,21.90
2019-02-28T22:35:29.412Z,23.57
2019-02-28T22:38:11.626Z,21.87
2019-02-28T22:40:55.689Z,21.03
2019-02-28T22:43:37.848Z,17.17
2019-02-28T22:46:20.065Z,20.53
2019-02-28T22:49:02.553Z,20.70
2019-02-28T22:51:46.516Z,27.37
2019-02-28T22:54:28.347Z,21.37
2019-02-28T22:57:10.490Z,21.50
2019-02-28T22:59:53.555Z,23.23
2019-02-28T23:02:35.532Z,22.20
2019-02-28T23:05:17.622Z,20.93
2019-02-28T23:08:00.221Z,24.23
2019-02-28T23:10:42.208Z,23.27
2019-02-28T23:13:26.035Z,23.73
2019-02-28T23:16:08.469Z,32.73
2019-02-28T23:18:51.049Z,27.60
2019-02-28T23:21:34.141Z,22.93
2019-02-28T23:24:16.072Z,29.00
2019-02-28T23:26:59.019Z,23.83
2019-02-28T23:29:40.858Z,25.97
2019-02-28T23:32:22.555Z,26.93
2019-02-28T23:35:06.226Z,26.93
2019-02-28T23:37:48.299Z,27.60
2019-02-28T23:40:30.456Z,28.10
2019-02-28T23:43:12.284Z,25.77
2019-02-28T23:45:54.312Z,30.02
2019-02-28T23:48:36.088Z,32.23
2019-02-28T23:51:17.894Z,27.23
2019-02-28T23:54:00.579Z,27.40
2019-02-28T23:56:42.541Z,27.83
2019-02-28T23:59:24.329Z,26.43
